Flight Track Log - Related Links

Times and Time Zones

All times are in EDT time to prevent confusion due to time zone crossing. See the UAL4401 flight status page for this flight to view local times or setup timezone preferences in your user account.


Time Position Orientation Groundspeed Altitude Reporting Facility
EDT Latitude Longitude Course Direction KTS MPH feet Rate Location/Type
Mon 08:22:11 PM 29.9614 -95.3411 97° East 146 168 800  Level Houston Center
Mon 08:23:00 PM 29.9475 -95.3019 112° Southeast 197 227 2,200 1,636 Climbing Houston Center
Mon 08:24:01 PM 29.9294 -95.2219 105° East 271 312 3,800 1,377 Climbing Houston Center
Mon 08:25:02 PM 29.9194 -95.1364 98° East 274 315 5,000 1,701 Climbing Houston Center
Mon 08:26:00 PM 29.8990 -94.6578 97° East  Level FlightAware Approximate
Mon 08:26:15 PM 29.9297 -95.0403 83° East 282 325 7,600  Level Houston Center
Mon 08:27:00 PM 29.8841 -94.5223 97° East  Level FlightAware Approximate
Mon 08:27:05 PM 29.9356 -94.9511 86° East 302 348 9,600  Level Houston Center
Mon 08:28:18 PM 29.9281 -94.8364 94° East 344 396 10,700 1,333 Climbing Houston Center
Mon 08:29:20 PM 29.9103 -94.6928 98° East 376 433 12,600 1,645 Climbing Houston Center
Mon 08:30:22 PM 29.8950 -94.5678 98° East 389 448 14,100 1,548 Climbing Houston Center
Mon 08:31:24 PM 29.8778 -94.4425 99° East 395 455 15,800 1,548 Climbing Houston Center
Mon 08:32:26 PM 29.8614 -94.3153 98° East 400 460 17,300 1,403 Climbing Houston Center
Mon 08:33:28 PM 29.8589 -94.1869 91° East 403 464 18,700 1,415 Climbing Houston Center
Mon 08:34:29 PM 29.8544 -94.0600 92° East 398 458 20,200 1,512 Climbing Houston Center
Mon 08:35:31 PM 29.8653 -93.9308 84° East 405 466 21,800 1,839 Climbing Houston Center
Mon 08:36:33 PM 29.8681 -93.7794 89° East 395 455 24,000 1,951 Climbing Houston Center
Mon 08:37:34 PM 29.8531 -93.6533 98° East 398 458 25,800 1,659 Climbing Houston Center
Mon 08:38:36 PM 29.8417 -93.5283 96° East 396 456 27,400 1,403 Climbing Houston Center
Mon 08:39:38 PM 29.8300 -93.4050 96° East 391 450 28,700 1,258 Climbing Houston Center
Mon 08:40:40 PM 29.8439 -93.2831 82° East 387 445 30,000 1,355 Climbing Houston Center
Mon 08:41:42 PM 29.8717 -93.1381 78° East 388 447 31,500 1,258 Climbing Houston Center
Mon 08:42:44 PM 29.8956 -93.0147 77° East 395 455 32,600 1,073 Climbing Houston Center
Mon 08:43:45 PM 29.9206 -92.8914 77° East 398 458 33,700 927 Climbing Houston Center
Mon 08:44:47 PM 29.9439 -92.7689 78° East 394 453 34,500 774 Climbing Houston Center
Mon 08:45:49 PM 29.9694 -92.6436 77° East 401 461 35,300 677 Climbing Houston Center
Mon 08:46:51 PM 29.9942 -92.5161 77° East 407 468 35,900 732 Climbing Houston Center
Mon 08:47:52 PM 30.0231 -92.3633 78° East 408 470 36,800 537 Climbing Houston Center
Mon 08:48:54 PM 30.0478 -92.2358 77° East 409 471 37,000 97 Climbing Houston Center
Mon 08:49:56 PM 30.0736 -92.1017 77° East 425 489 37,000  Level Houston Center
Mon 08:50:58 PM 30.1006 -91.9614 77° East 445 512 37,000  Level Houston Center
Mon 08:51:59 PM 30.1275 -91.8167 78° East 458 527 37,000  Level Houston Center
Mon 08:53:01 PM 30.1544 -91.6689 78° East 474 545 37,000  Level Houston Center
Mon 08:54:03 PM 30.1897 -91.4828 78° East 492 566 37,000  Level Houston Center
Mon 08:55:04 PM 30.2183 -91.3258 78° East 500 575 37,000  Level Houston Center
Mon 08:56:06 PM 30.2514 -91.1675 76° East 504 580 37,000  Level Houston Center
Mon 08:57:08 PM 30.3003 -91.0164 69° East 502 578 37,000  Level Houston Center
Mon 08:58:09 PM 30.3467 -90.8650 70° East 500 575 37,000  Level Houston Center
Mon 08:59:11 PM 30.3928 -90.7156 70° East 495 570 37,000  Level Houston Center
Mon 09:00:13 PM 30.4378 -90.5675 71° East 490 564 37,000  Level Houston Center
Mon 09:01:14 PM 30.4836 -90.4208 70° East 482 555 37,000  Level Houston Center
Mon 09:02:16 PM 30.5556 -90.2561 63° Northeast 475 547 37,000  Level Houston Center
Mon 09:03:18 PM 30.6164 -90.1192 63° Northeast 473 544 37,000  Level Houston Center
Mon 09:04:19 PM 30.6767 -89.9831 63° Northeast 471 542 37,000  Level Houston Center
Mon 09:05:21 PM 30.7375 -89.8450 63° Northeast 472 543 37,000  Level Houston Center
Mon 09:06:22 PM 30.7978 -89.7078 63° Northeast 473 544 37,000  Level Houston Center
Mon 09:07:24 PM 30.8581 -89.5703 63° Northeast 474 545 37,000  Level Houston Center
Mon 09:08:26 PM 30.9175 -89.4339 63° Northeast 472 543 37,000  Level Houston Center
Mon 09:09:27 PM 30.9786 -89.2964 63° Northeast 476 548 37,000  Level Houston Center
Mon 09:10:29 PM 31.0358 -89.1583 64° Northeast 474 545 37,000  Level Houston Center
Mon 09:11:30 PM 31.0947 -89.0231 63° Northeast 469 540 37,000  Level Houston Center
Mon 09:12:32 PM 31.1611 -88.8703 63° Northeast 469 540 37,000  Level Houston Center
Mon 09:13:34 PM 31.2189 -88.7353 63° Northeast 466 536 37,000  Level Houston Center
Mon 09:14:35 PM 31.2775 -88.5981 63° Northeast 467 537 37,000  Level Houston Center
Mon 09:15:37 PM 31.3367 -88.4619 63° Northeast 466 536 37,000  Level Houston Center
Mon 09:16:53 PM 31.4194 -88.2750 63° Northeast 463 533 37,000  Level Atlanta Center
Mon 09:17:53 PM 31.4694 -88.1533 64° Northeast 463 533 37,000  Level Atlanta Center
Mon 09:18:53 PM 31.5281 -88.0172 63° Northeast 463 533 37,000  Level Atlanta Center
Mon 09:19:53 PM 31.5869 -87.8783 64° Northeast 463 533 37,000  Level Atlanta Center
Mon 09:20:53 PM 31.6431 -87.7442 64° Northeast 463 533 37,000  Level Atlanta Center
Mon 09:21:53 PM 31.7014 -87.6050 64° Northeast 458 527 37,000  Level Atlanta Center
Mon 09:22:53 PM 31.7597 -87.4656 64° Northeast 463 533 37,000  Level Atlanta Center
Mon 09:23:53 PM 31.8181 -87.3139 66° East 463 533 37,000  Level Atlanta Center
Mon 09:24:53 PM 31.8758 -87.1767 64° Northeast 458 527 37,000  Level Atlanta Center
Mon 09:25:53 PM 31.9336 -87.0367 64° Northeast 458 527 37,000  Level Atlanta Center
Mon 09:26:53 PM 31.9889 -86.8989 65° Northeast 458 527 37,000  Level Atlanta Center
Mon 09:27:53 PM 32.0464 -86.7586 64° Northeast 458 527 37,000  Level Atlanta Center
Mon 09:28:53 PM 32.1011 -86.6378 62° Northeast 458 527 37,000  Level Atlanta Center
Mon 09:29:53 PM 32.1583 -86.4947 65° Northeast 463 533 37,000  Level Atlanta Center
Mon 09:30:53 PM 32.2156 -86.3464 65° Northeast 463 533 37,000  Level Atlanta Center
Mon 09:31:53 PM 32.2908 -86.2208 55° Northeast 457 526 37,000  Level Atlanta Center
Mon 09:32:53 PM 32.3681 -86.0997 53° Northeast 450 518 37,000  Level Atlanta Center
Mon 09:33:53 PM 32.4472 -85.9833 51° Northeast 456 525 37,000  Level Atlanta Center
Mon 09:34:53 PM 32.5242 -85.8717 51° Northeast 473 544 37,000  Level Atlanta Center
Mon 09:35:53 PM 32.6050 -85.7525 51° Northeast 473 544 37,000  Level Atlanta Center
Mon 09:36:53 PM 32.6881 -85.6308 51° Northeast 468 539 37,000  Level Atlanta Center
Mon 09:37:53 PM 32.7647 -85.5086 53° Northeast 468 539 37,000  Level Atlanta Center
Mon 09:38:53 PM 32.8475 -85.3889 51° Northeast 468 539 37,000  Level Atlanta Center
Mon 09:39:53 PM 32.9261 -85.2614 54° Northeast 468 539 37,000  Level Atlanta Center
Mon 09:40:53 PM 33.0086 -85.1461 50° Northeast 462 532 37,000  Level Atlanta Center
Mon 09:41:53 PM 33.0889 -85.0231 52° Northeast 462 532 37,000  Level Atlanta Center
Mon 09:42:53 PM 33.1672 -84.9050 52° Northeast 462 532 37,000  Level Atlanta Center
Mon 09:43:53 PM 33.2472 -84.7792 53° Northeast 467 537 37,000  Level Atlanta Center
Mon 09:44:53 PM 33.3356 -84.6456 52° Northeast 467 537 37,000  Level Atlanta Center
Mon 09:45:53 PM 33.4156 -84.5217 52° Northeast 467 537 37,000  Level Atlanta Center
Mon 09:46:53 PM 33.4953 -84.3925 53° Northeast 467 537 37,000  Level Atlanta Center
Mon 09:47:53 PM 33.5769 -84.2683 52° Northeast 473 544 37,000  Level Atlanta Center
Mon 09:48:53 PM 33.6564 -84.1411 53° Northeast 474 545 37,000  Level Atlanta Center
Mon 09:49:53 PM 33.7400 -84.0139 52° Northeast 474 545 37,000  Level Atlanta Center
Mon 09:50:53 PM 33.8192 -83.8889 53° Northeast 481 554 37,000  Level Atlanta Center
Mon 09:51:53 PM 33.9025 -83.7608 52° Northeast 481 554 37,000  Level Atlanta Center
Mon 09:52:53 PM 33.9836 -83.6281 54° Northeast 487 560 37,000  Level Atlanta Center
Mon 09:53:53 PM 34.0664 -83.5022 52° Northeast 482 555 37,000  Level Atlanta Center
Mon 09:54:53 PM 34.1472 -83.3711 53° Northeast 482 555 37,000  Level Atlanta Center
Mon 09:55:53 PM 34.2319 -83.2397 52° Northeast 487 560 37,000  Level Atlanta Center
Mon 09:56:53 PM 34.3125 -83.1083 53° Northeast 487 560 37,000  Level Atlanta Center
Mon 09:57:53 PM 34.3928 -82.9764 54° Northeast 482 555 37,000  Level Atlanta Center
Mon 09:58:53 PM 34.4731 -82.8444 54° Northeast 482 555 37,000  Level Atlanta Center
Mon 09:59:53 PM 34.5550 -82.7122 53° Northeast 482 555 37,000  Level Atlanta Center
Mon 10:01:00 PM 34.6344 -82.5814 54° Northeast  Level FlightAware Approximate
Mon 10:01:53 PM 34.7189 -82.4467 54° Northeast 488 562 37,000  Level Atlanta Center
Mon 10:02:53 PM 34.8006 -82.3111 54° Northeast 495 570 37,000  Level Atlanta Center
Mon 10:03:53 PM 34.8819 -82.1778 53° Northeast 495 570 37,000  Level Atlanta Center
Mon 10:04:53 PM 34.9656 -82.0442 53° Northeast 490 564 37,000  Level Atlanta Center
Mon 10:05:53 PM 35.0447 -81.9103 54° Northeast 490 564 37,000  Level Atlanta Center
Mon 10:06:53 PM 35.1172 -81.7714 57° Northeast 490 564 37,000  Level Atlanta Center
Mon 10:07:53 PM 35.1919 -81.6319 57° Northeast 490 564 37,000  Level Atlanta Center
Mon 10:08:53 PM 35.2561 -81.5056 58° Northeast 490 564 37,000  Level Atlanta Center
Mon 10:09:53 PM 35.3303 -81.3658 57° Northeast 490 564 37,000  Level Atlanta Center
Mon 10:10:53 PM 35.4022 -81.2283 57° Northeast 490 564 37,000  Level Atlanta Center
Mon 10:11:53 PM 35.4819 -81.0700 58° Northeast 490 564 37,000 -200 Level Atlanta Center
Mon 10:12:53 PM 35.5325 -80.9150 68° East 481 554 36,600 -400 Descending Atlanta Center
Mon 10:13:53 PM 35.5769 -80.7756 69° East 476 548 36,200 -550 Descending Atlanta Center
Mon 10:14:53 PM 35.6289 -80.6178 68° East 487 560 35,500 -950 Descending Atlanta Center
Mon 10:15:53 PM 35.6850 -80.4644 66° East 493 567 34,300 -728 Descending Atlanta Center
Mon 10:18:19 PM 35.9150 -80.1417 49° Northeast 492 566 33,000 -379 Descending Washington Center
Mon 10:19:19 PM 36.0114 -80.0242 45° Northeast 492 566 33,000  Level Washington Center
Mon 10:20:19 PM 36.0997 -79.8878 51° Northeast 487 560 33,000  Level Washington Center
Mon 10:21:19 PM 36.1778 -79.7453 56° Northeast 493 567 33,000  Level Washington Center
Mon 10:22:19 PM 36.2578 -79.6053 55° Northeast 504 580 33,000  Level Washington Center
Mon 10:23:19 PM 36.3397 -79.4597 55° Northeast 504 580 33,000 -150 Level Washington Center
Mon 10:24:19 PM 36.4128 -79.3267 56° Northeast 504 580 32,700 -1,500 Descending Washington Center
Mon 10:25:19 PM 36.5011 -79.1681 55° Northeast 509 586 30,000 -2,700 Descending Washington Center
Mon 10:26:19 PM 36.5783 -79.0319 55° Northeast 495 570 27,300 -2,450 Descending Washington Center
Mon 10:27:19 PM 36.6550 -78.8981 54° Northeast 482 555 25,100 -1,150 Descending Washington Center
Mon 10:28:19 PM 36.7256 -78.7586 58° Northeast 477 549 25,000 -50 Descending Washington Center
Mon 10:29:19 PM 36.7933 -78.6369 55° Northeast 472 543 25,000  Level Washington Center
Mon 10:30:19 PM 36.8675 -78.5075 54° Northeast 472 543 25,000 -300 Level Washington Center
Mon 10:31:19 PM 36.9497 -78.3883 49° Northeast 454 522 24,400 -1,000 Descending Washington Center
Mon 10:32:19 PM 37.0769 -78.2967 30° Northeast 449 517 23,000 -1,200 Descending Washington Center
Mon 10:33:19 PM 37.1853 -78.2119 32° Northeast 455 524 22,000 -500 Descending Washington Center
Mon 10:34:19 PM 37.2911 -78.1319 31° Northeast 455 524 22,000  Level Washington Center
Mon 10:35:19 PM 37.3994 -78.0492 31° Northeast 455 524 22,000  Level Washington Center
Mon 10:36:19 PM 37.5094 -77.9664 31° Northeast 455 524 22,000  Level Washington Center
Mon 10:37:19 PM 37.6153 -77.8831 32° Northeast 455 524 22,000 -600 Level Washington Center
Mon 10:38:19 PM 37.7192 -77.8022 32° Northeast 449 517 20,800 -2,050 Descending Washington Center
Mon 10:39:19 PM 37.8206 -77.7239 31° Northeast 436 502 17,900 -2,650 Descending Washington Center
Mon 10:40:19 PM 37.9136 -77.6553 30° Northeast 421 484 15,500 -2,250 Descending Washington Center
Mon 10:41:19 PM 38.0025 -77.5839 32° Northeast 396 456 13,400 -2,350 Descending Washington Center
Mon 10:42:19 PM 38.0806 -77.5281 29° Northeast 377 434 10,800 -1,700 Descending Washington Center
Mon 10:43:19 PM 38.1628 -77.4642 31° Northeast 358 412 10,000 -400 Descending Washington Center
Mon 10:44:19 PM 38.2511 -77.4081 27° Northeast 352 405 10,000 -350 Level Washington Center
Mon 10:45:19 PM 38.3308 -77.3917 North 310 357 9,300 -1,100 Descending Washington Center
Mon 10:46:19 PM 38.4097 -77.4067 352° North 285 328 7,800 -1,250 Descending Washington Center
Mon 10:47:19 PM 38.4844 -77.4244 349° North 279 321 6,800 -1,000 Descending Washington Center
Mon 10:48:19 PM 38.5636 -77.4397 351° North 279 321 5,800 -1,122 Descending Washington Center
Mon 10:49:22 PM 38.6500 -77.4667 346° North 265 305 4,500 -1,073 Descending Potomac TRACON
Mon 10:50:22 PM 38.7167 -77.4667 360° North 258 297 3,600 -750 Descending Potomac TRACON
Mon 10:51:22 PM 38.7833 -77.4667 360° North 238 274 3,000 -700 Descending Potomac TRACON
Mon 10:52:22 PM 38.8500 -77.4667 360° North 199 229 2,200 -800 Descending Potomac TRACON

Login

Don't have an account? Register now (free) for customized features, flight alerts, and more!